Time,TemperatureF,DewpointF,PressureIn,WindDirection,WindDirectionDegrees,WindSpeedMPH,WindSpeedGustMPH,Humidity,HourlyPrecipIn,Conditions,Clouds,dailyrainin,SolarRadiationWatts/m^2,SoftwareType,DateUTC
2013-06-16 00:00:00,70.6,63.0,30.12,South,187,0.0,1.1,77,0.00,CLR,OVC,0.00,0.0,WeatherDisplay:10.37,2013-06-16 04:00:00,
2013-06-16 00:01:00,70.6,63.0,30.12,South,187,0.1,1.1,77,0.00,CLR,OVC,0.00,0.0,WeatherDisplay:10.37,2013-06-16 04:01:00,
2013-06-16 00:06:00,70.4,62.8,30.12,SSW,194,0.1,1.1,77,0.00,CLR,OVC,0.00,0.0,WeatherDisplay:10.37,2013-06-16 04:06:00,
2013-06-16 00:11:00,70.3,63.1,30.12,South,185,0.1,1.1,78,0.00,CLR,OVC,0.00,0.0,WeatherDisplay:10.37,2013-06-16 04:11:00,
2013-06-16 00:16:00,70.2,63.0,30.12,SSW,202,0.0,1.1,78,0.00,CLR,OVC,0.00,0.0,WeatherDisplay:10.37,2013-06-16 04:16:00,
2013-06-16 00:21:00,70.1,62.9,30.12,SSW,204,0.0,0.0,78,0.00,CLR,OVC,0.00,0.0,WeatherDisplay:10.37,2013-06-16 04:21:00,
2013-06-16 00:26:00,70.0,63.2,30.12,SSW,203,0.0,0.0,79,0.00,CLR,OVC,0.00,0.0,WeatherDisplay:10.37,2013-06-16 04:26:00,
2013-06-16 00:31:00,69.9,63.1,30.12,SSW,209,0.5,1.1,79,0.00,CLR,OVC,0.00,0.0,WeatherDisplay:10.37,2013-06-16 04:31:00,
2013-06-16 00:36:00,69.9,63.4,30.12,South,185,0.5,1.1,80,0.00,CLR,OVC,0.00,0.0,WeatherDisplay:10.37,2013-06-16 04:36:00,
2013-06-16 00:41:00,69.9,63.4,30.12,SSW,194,0.1,0.0,80,0.00,CLR,OVC,0.00,0.0,WeatherDisplay:10.37,2013-06-16 04:41:00,
2013-06-16 00:46:00,70.0,63.5,30.12,SSW,199,0.1,3.5,80,0.00,CLR,OVC,0.00,0.0,WeatherDisplay:10.37,2013-06-16 04:46:00,
2013-06-16 00:51:00,70.2,63.7,30.13,SW,223,0.4,1.1,80,0.00,CLR,OVC,0.00,0.0,WeatherDisplay:10.37,2013-06-16 04:51:00,
2013-06-16 00:56:00,70.4,63.9,30.13,SW,227,0.9,2.3,80,0.00,CLR,OVC,0.00,0.0,WeatherDisplay:10.37,2013-06-16 04:56:00,
2013-06-16 01:01:00,70.6,64.1,30.13,SW,231,1.1,2.3,80,0.00,CLR,OVC,0.00,0.0,WeatherDisplay:10.37,2013-06-16 05:01:00,
2013-06-16 01:06:00,70.7,64.2,30.13,SSW,200,0.5,2.3,80,0.00,CLR,OVC,0.00,0.0,WeatherDisplay:10.37,2013-06-16 05:06:00,
2013-06-16 01:11:00,70.9,64.1,30.13,SW,220,1.1,1.1,79,0.00,CLR,OVC,0.00,0.0,WeatherDisplay:10.37,2013-06-16 05:11:00,
2013-06-16 01:16:00,71.0,64.2,30.13,SSW,208,0.2,2.3,79,0.00,CLR,OVC,0.00,0.0,WeatherDisplay:10.37,2013-06-16 05:16:00,
2013-06-16 01:21:00,71.1,64.3,30.13,South,180,1.3,3.5,79,0.00,CLR,OVC,0.00,0.0,WeatherDisplay:10.37,2013-06-16 05:21:00,
2013-06-16 01:26:00,71.1,64.3,30.13,SSW,199,0.2,2.3,79,0.00,CLR,OVC,0.00,0.0,WeatherDisplay:10.37,2013-06-16 05:26:00,
2013-06-16 01:31:00,71.1,64.3,30.13,SSW,211,0.2,1.1,79,0.00,CLR,OVC,0.00,0.0,WeatherDisplay:10.37,2013-06-16 05:31:00,
2013-06-16 01:36:00,71.1,64.3,30.14,SSW,211,0.4,1.1,79,0.00,CLR,OVC,0.00,0.0,WeatherDisplay:10.37,2013-06-16 05:36:00,
2013-06-16 01:41:00,71.0,64.2,30.14,SW,217,1.4,3.5,79,0.00,CLR,OVC,0.00,0.0,WeatherDisplay:10.37,2013-06-16 05:41:00,
2013-06-16 01:46:00,71.0,64.2,30.14,SW,215,0.2,1.1,79,0.00,CLR,OVC,0.00,0.0,WeatherDisplay:10.37,2013-06-16 05:46:00,
2013-06-16 01:51:00,70.9,64.4,30.13,SW,227,0.1,1.1,80,0.00,CLR,OVC,0.00,0.0,WeatherDisplay:10.37,2013-06-16 05:51:00,
2013-06-16 01:56:00,70.8,64.3,30.13,SW,227,0.0,1.1,80,0.00,CLR,OVC,0.00,0.0,WeatherDisplay:10.37,2013-06-16 05:56:00,
2013-06-16 02:01:00,70.7,64.2,30.13,SSW,209,0.5,2.3,80,0.00,CLR,OVC,0.00,0.0,WeatherDisplay:10.37,2013-06-16 06:01:00,
2013-06-16 02:06:00,70.6,64.1,30.13,SW,215,0.1,1.1,80,0.00,CLR,OVC,0.00,0.0,WeatherDisplay:10.37,2013-06-16 06:06:00,
2013-06-16 02:11:00,70.6,64.5,30.13,SSW,211,0.8,3.5,81,0.00,CLR,OVC,0.00,0.0,WeatherDisplay:10.37,2013-06-16 06:11:00,
2013-06-16 02:16:00,70.6,64.5,30.13,SSW,194,0.6,1.1,81,0.00,CLR,OVC,0.00,0.0,WeatherDisplay:10.37,2013-06-16 06:16:00,
2013-06-16 02:21:00,70.6,64.5,30.13,SW,217,0.3,1.1,81,0.00,CLR,OVC,0.00,0.0,WeatherDisplay:10.37,2013-06-16 06:21:00,
2013-06-16 02:26:00,70.6,64.5,30.13,SSW,207,1.0,2.3,81,0.00,CLR,OVC,0.00,0.0,WeatherDisplay:10.37,2013-06-16 06:26:00,
2013-06-16 02:31:00,70.6,64.5,30.12,SSW,192,0.3,1.1,81,0.00,CLR,OVC,0.00,0.0,WeatherDisplay:10.37,2013-06-16 06:31:00,
2013-06-16 02:36:00,70.6,64.5,30.12,SSW,198,0.2,3.5,81,0.00,CLR,OVC,0.00,0.0,WeatherDisplay:10.37,2013-06-16 06:36:00,
2013-06-16 02:41:00,70.6,64.5,30.12,SW,217,0.3,1.1,81,0.00,CLR,OVC,0.00,0.0,WeatherDisplay:10.37,2013-06-16 06:41:00,
2013-06-16 02:46:00,70.7,64.6,30.13,WSW,257,1.0,3.0,81,0.00,CLR,OVC,0.00,0.0,WeatherDisplay:10.37,2013-06-16 06:46:00,
2013-06-16 02:51:00,70.7,64.6,30.13,South,185,1.9,4.6,81,0.00,CLR,OVC,0.00,0.0,WeatherDisplay:10.37,2013-06-16 06:51:00,
2013-06-16 02:56:00,70.7,64.6,30.13,South,190,0.0,0.0,81,0.00,CLR,OVC,0.00,0.0,WeatherDisplay:10.37,2013-06-16 06:56:00,
2013-06-16 03:01:00,70.7,64.6,30.13,SSW,192,2.5,4.6,81,0.00,CLR,OVC,0.00,0.0,WeatherDisplay:10.37,2013-06-16 07:01:00,
2013-06-16 03:06:00,70.8,64.7,30.12,South,169,1.3,3.5,81,0.00,CLR,OVC,0.00,0.0,WeatherDisplay:10.37,2013-06-16 07:06:00,
2013-06-16 03:11:00,70.8,64.7,30.12,SSW,196,0.1,3.5,81,0.00,CLR,OVC,0.00,0.0,WeatherDisplay:10.37,2013-06-16 07:11:00,
2013-06-16 03:16:00,70.8,64.7,30.12,SSW,213,1.8,3.5,81,0.00,CLR,OVC,0.00,0.0,WeatherDisplay:10.37,2013-06-16 07:16:00,
2013-06-16 03:22:00,70.7,64.6,30.11,SSW,210,1.0,2.3,81,0.00,CLR,OVC,0.00,0.0,WeatherDisplay:10.37,2013-06-16 07:22:00,
2013-06-16 03:26:00,70.6,64.5,30.11,SW,227,1.0,3.5,81,0.00,CLR,OVC,0.00,0.0,WeatherDisplay:10.37,2013-06-16 07:26:00,
2013-06-16 03:32:00,70.6,64.5,30.11,SSW,207,0.1,2.3,81,0.00,CLR,OVC,0.00,0.0,WeatherDisplay:10.37,2013-06-16 07:32:00,
2013-06-16 03:37:00,70.5,64.4,30.11,SSW,207,0.0,0.0,81,0.00,CLR,OVC,0.00,0.0,WeatherDisplay:10.37,2013-06-16 07:37:00,
2013-06-16 03:42:00,70.4,64.3,30.11,SSW,207,0.1,1.0,81,0.00,CLR,OVC,0.00,0.0,WeatherDisplay:10.37,2013-06-16 07:42:00,
2013-06-16 03:47:00,70.2,64.4,30.11,West,267,0.3,2.3,82,0.00,CLR,OVC,0.00,0.0,WeatherDisplay:10.37,2013-06-16 07:47:00,
2013-06-16 03:52:00,70.1,64.3,30.11,SSW,194,0.4,2.3,82,0.00,CLR,OVC,0.00,0.0,WeatherDisplay:10.37,2013-06-16 07:52:00,
2013-06-16 03:57:00,70.1,64.3,30.11,SSW,194,0.1,1.1,82,0.00,CLR,OVC,0.00,0.0,WeatherDisplay:10.37,2013-06-16 07:57:00,
2013-06-16 04:02:00,69.9,64.5,30.11,SSW,194,0.0,1.1,83,0.00,CLR,OVC,0.00,0.0,WeatherDisplay:10.37,2013-06-16 08:02:00,
2013-06-16 04:07:00,69.8,64.4,30.11,SSW,194,0.0,0.0,83,0.00,CLR,OVC,0.00,0.0,WeatherDisplay:10.37,2013-06-16 08:07:00,
2013-06-16 04:12:00,69.6,64.2,30.11,SSW,194,0.0,1.0,83,0.00,CLR,OVC,0.00,0.0,WeatherDisplay:10.37,2013-06-16 08:12:00,
2013-06-16 04:17:00,69.3,63.9,30.12,SSW,194,0.0,0.0,83,0.00,CLR,OVC,0.00,0.0,WeatherDisplay:10.37,2013-06-16 08:17:00,
2013-06-16 04:22:00,69.0,64.0,30.12,SSW,194,0.0,0.0,84,0.00,CLR,OVC,0.00,0.0,WeatherDisplay:10.37,2013-06-16 08:22:00,
2013-06-16 04:27:00,68.8,64.1,30.12,SSW,194,0.0,0.0,85,0.00,CLR,OVC,0.00,0.0,WeatherDisplay:10.37,2013-06-16 08:27:00,
2013-06-16 04:32:00,68.5,63.8,30.12,SSW,194,0.0,0.0,85,0.00,CLR,OVC,0.00,0.0,WeatherDisplay:10.37,2013-06-16 08:32:00,
2013-06-16 04:37:00,68.3,63.6,30.12,SSW,194,0.0,0.0,85,0.00,CLR,OVC,0.00,0.0,WeatherDisplay:10.37,2013-06-16 08:37:00,
2013-06-16 04:42:00,68.0,63.7,30.12,SSW,194,0.0,0.0,86,0.00,CLR,OVC,0.00,0.0,WeatherDisplay:10.37,2013-06-16 08:42:00,
2013-06-16 04:47:00,67.7,63.4,30.12,SSW,194,0.0,0.0,86,0.00,CLR,OVC,0.00,0.0,WeatherDisplay:10.37,2013-06-16 08:47:00,
2013-06-16 04:52:00,67.4,63.1,30.12,SSW,194,0.0,0.0,86,0.00,CLR,OVC,0.00,0.0,WeatherDisplay:10.37,2013-06-16 08:52:00,
2013-06-16 04:57:00,67.2,63.2,30.12,SSW,194,0.0,0.0,87,0.00,CLR,OVC,0.00,0.0,WeatherDisplay:10.37,2013-06-16 08:57:00,
2013-06-16 05:02:00,66.9,62.9,30.13,SSW,194,0.0,0.0,87,0.00,CLR,OVC,0.00,0.0,WeatherDisplay:10.37,2013-06-16 09:02:00,
2013-06-16 05:07:00,66.7,63.0,30.13,SSW,194,0.0,0.0,88,0.00,CLR,OVC,0.00,0.0,WeatherDisplay:10.37,2013-06-16 09:07:00,
2013-06-16 05:12:00,66.5,62.8,30.13,SSW,194,0.0,0.0,88,0.00,CLR,OVC,0.00,0.0,WeatherDisplay:10.37,2013-06-16 09:12:00,
2013-06-16 05:17:00,66.3,62.6,30.13,SSW,194,0.0,0.0,88,0.00,CLR,OVC,0.00,0.0,WeatherDisplay:10.37,2013-06-16 09:17:00,
2013-06-16 05:22:00,66.1,62.8,30.13,SSW,194,0.0,0.0,89,0.00,CLR,OVC,0.00,0.0,WeatherDisplay:10.37,2013-06-16 09:22:00,
2013-06-16 05:27:00,66.0,62.7,30.13,SSW,194,0.0,0.0,89,0.00,CLR,OVC,0.00,0.0,WeatherDisplay:10.37,2013-06-16 09:27:00,
2013-06-16 05:32:00,65.7,62.4,30.13,SSW,194,0.0,0.0,89,0.00,OVC,,0.00,0.0,WeatherDisplay:10.37,2013-06-16 09:32:00,
2013-06-16 05:37:00,65.6,62.6,30.13,SSW,194,0.0,0.0,90,0.00,OVC,,0.00,0.0,WeatherDisplay:10.37,2013-06-16 09:37:00,
2013-06-16 05:42:00,65.5,62.5,30.13,SSW,194,0.0,0.0,90,0.00,OVC,,0.00,0.0,WeatherDisplay:10.37,2013-06-16 09:42:00,
2013-06-16 05:47:00,65.3,62.3,30.14,SSW,194,0.0,0.0,90,0.00,OVC,,0.00,0.0,WeatherDisplay:10.37,2013-06-16 09:47:00,
2013-06-16 05:52:00,65.1,62.4,30.13,SSW,194,0.0,0.0,91,0.00,OVC,,0.00,0.0,WeatherDisplay:10.37,2013-06-16 09:52:00,
2013-06-16 05:57:00,65.1,63.0,30.14,SSW,195,0.0,0.0,93,0.00,OVC,,0.00,0.0,WeatherDisplay:10.37,2013-06-16 09:57:00,
2013-06-16 06:02:00,65.1,62.7,30.14,SSW,195,0.0,0.0,92,0.00,OVC,,0.00,0.0,WeatherDisplay:10.37,2013-06-16 10:02:00,
2013-06-16 06:07:00,65.0,62.6,30.14,SSW,193,0.0,0.0,92,0.00,OVC,,0.00,0.0,WeatherDisplay:10.37,2013-06-16 10:07:00,
2013-06-16 06:12:00,64.9,62.5,30.14,SW,236,0.0,0.0,92,0.00,OVC,,0.00,0.0,WeatherDisplay:10.37,2013-06-16 10:12:00,
2013-06-16 06:17:00,64.8,62.7,30.14,SW,236,0.0,0.0,93,0.00,OVC,,0.00,0.0,WeatherDisplay:10.37,2013-06-16 10:17:00,
2013-06-16 06:22:00,64.7,62.6,30.14,SW,236,0.0,0.0,93,0.00,OVC,,0.00,0.0,WeatherDisplay:10.37,2013-06-16 10:22:00,
2013-06-16 06:27:00,64.7,62.6,30.14,WSW,237,0.0,0.0,93,0.00,OVC,,0.00,0.0,WeatherDisplay:10.37,2013-06-16 10:27:00,
2013-06-16 06:32:00,64.6,62.5,30.14,SW,236,0.0,0.0,93,0.00,OVC,,0.00,0.0,WeatherDisplay:10.37,2013-06-16 10:32:00,
2013-06-16 06:37:00,64.6,62.5,30.14,SW,236,0.0,0.0,93,0.00,OVC,,0.00,0.0,WeatherDisplay:10.37,2013-06-16 10:37:00,
2013-06-16 06:42:00,64.7,62.6,30.14,ESE,121,0.0,0.0,93,0.00,OVC,,0.00,0.0,WeatherDisplay:10.37,2013-06-16 10:42:00,
2013-06-16 06:47:00,64.8,63.0,30.14,ESE,121,0.0,0.0,94,0.00,OVC,,0.00,0.0,WeatherDisplay:10.37,2013-06-16 10:47:00,
2013-06-16 06:52:00,64.9,63.1,30.15,ESE,121,0.0,0.0,94,0.00,OVC,,0.00,0.0,WeatherDisplay:10.37,2013-06-16 10:52:00,
2013-06-16 06:57:00,65.1,63.3,30.15,ESE,121,0.0,0.0,94,0.00,OVC,,0.00,0.0,WeatherDisplay:10.37,2013-06-16 10:57:00,
2013-06-16 07:02:00,65.4,63.6,30.15,ESE,121,0.0,0.0,94,0.00,OVC,,0.00,0.0,WeatherDisplay:10.37,2013-06-16 11:02:00,
2013-06-16 07:07:00,65.7,63.9,30.15,ESE,121,0.0,0.0,94,0.00,OVC,,0.00,0.0,WeatherDisplay:10.37,2013-06-16 11:07:00,
2013-06-16 07:12:00,66.0,64.2,30.15,ESE,121,0.0,0.0,94,0.00,OVC,,0.00,0.0,WeatherDisplay:10.37,2013-06-16 11:12:00,
2013-06-16 07:17:00,66.6,64.8,30.15,ESE,121,0.0,0.0,94,0.00,OVC,,0.00,0.0,WeatherDisplay:10.37,2013-06-16 11:17:00,
2013-06-16 07:22:00,67.4,65.6,30.15,ESE,121,0.0,0.0,94,0.00,OVC,,0.00,0.0,WeatherDisplay:10.37,2013-06-16 11:22:00,
2013-06-16 07:27:00,68.3,66.2,30.15,ESE,121,0.0,0.0,93,0.00,OVC,,0.00,0.0,WeatherDisplay:10.37,2013-06-16 11:27:00,
2013-06-16 07:32:00,69.3,66.6,30.15,ESE,122,0.0,0.0,91,0.00,OVC,,0.00,0.0,WeatherDisplay:10.37,2013-06-16 11:32:00,
2013-06-16 07:37:00,70.2,66.8,30.15,SE,134,0.3,2.3,89,0.00,OVC,,0.00,0.0,WeatherDisplay:10.37,2013-06-16 11:37:00,
2013-06-16 07:42:00,71.1,66.7,30.15,SSW,209,0.3,1.1,86,0.00,OVC,,0.00,0.0,WeatherDisplay:10.37,2013-06-16 11:42:00,
2013-06-16 07:47:00,72.1,66.6,30.16,SSW,212,0.1,1.1,83,0.00,OVC,,0.00,0.0,WeatherDisplay:10.37,2013-06-16 11:47:00,
2013-06-16 07:52:00,73.0,67.5,30.16,WSW,250,0.0,0.0,83,0.00,OVC,,0.00,0.0,WeatherDisplay:10.37,2013-06-16 11:52:00,
2013-06-16 07:57:00,73.9,67.7,30.16,SW,233,2.9,4.6,81,0.00,OVC,,0.00,0.0,WeatherDisplay:10.37,2013-06-16 11:57:00,
2013-06-16 08:02:00,74.6,67.7,30.16,SW,220,0.0,0.0,79,0.00,OVC,,0.00,0.0,WeatherDisplay:10.37,2013-06-16 12:02:00,
2013-06-16 08:07:00,75.3,67.6,30.16,West,264,1.3,3.5,77,0.00,OVC,,0.00,0.0,WeatherDisplay:10.37,2013-06-16 12:07:00,
2013-06-16 08:12:00,75.9,67.8,30.16,SW,217,2.1,3.5,76,0.00,OVC,,0.00,0.0,WeatherDisplay:10.37,2013-06-16 12:12:00,
2013-06-16 08:17:00,76.5,68.4,30.16,WSW,252,0.7,3.5,76,0.00,OVC,,0.00,0.0,WeatherDisplay:10.37,2013-06-16 12:17:00,
2013-06-16 08:22:00,77.2,67.9,30.16,SW,231,2.1,4.6,73,0.00,OVC,,0.00,0.0,WeatherDisplay:10.37,2013-06-16 12:22:00,
2013-06-16 08:27:00,77.4,67.7,30.17,SSW,199,2.3,3.5,72,0.00,OVC,,0.00,0.0,WeatherDisplay:10.37,2013-06-16 12:27:00,
2013-06-16 08:32:00,77.8,67.6,30.17,WSW,242,2.5,4.6,71,0.00,OVC,,0.00,0.0,WeatherDisplay:10.37,2013-06-16 12:32:00,
2013-06-16 08:37:00,78.3,67.7,30.17,SW,236,2.6,5.8,70,0.00,OVC,,0.00,0.0,WeatherDisplay:10.37,2013-06-16 12:37:00,
2013-06-16 08:42:00,78.7,67.2,30.17,SW,236,6.4,11.5,68,0.00,OVC,,0.00,0.0,WeatherDisplay:10.37,2013-06-16 12:42:00,
2013-06-16 08:47:00,78.8,66.9,30.17,South,186,6.0,9.2,67,0.00,OVC,,0.00,0.0,WeatherDisplay:10.37,2013-06-16 12:47:00,
2013-06-16 08:52:00,79.0,67.1,30.17,WNW,287,1.4,3.5,67,0.00,OVC,,0.00,0.0,WeatherDisplay:10.37,2013-06-16 12:52:00,
2013-06-16 08:57:00,79.1,66.8,30.17,SSE,161,4.0,5.8,66,0.00,OVC,,0.00,0.0,WeatherDisplay:10.37,2013-06-16 12:57:00,
2013-06-16 09:02:00,79.2,66.9,30.17,SW,219,3.2,6.9,66,0.00,OVC,,0.00,0.0,WeatherDisplay:10.37,2013-06-16 13:02:00,
2013-06-16 09:07:00,79.5,67.1,30.17,WNW,284,4.8,8.1,66,0.00,OVC,,0.00,0.0,WeatherDisplay:10.37,2013-06-16 13:07:00,
2013-06-16 09:12:00,79.6,67.7,30.17,SSW,213,4.8,6.9,67,0.00,OVC,,0.00,0.0,WeatherDisplay:10.37,2013-06-16 13:12:00,
2013-06-16 09:17:00,79.4,66.6,30.17,SW,236,6.4,11.5,65,0.00,OVC,,0.00,0.0,WeatherDisplay:10.37,2013-06-16 13:17:00,
2013-06-16 09:23:00,79.4,67.0,30.17,SW,233,5.0,11.5,66,0.00,OVC,,0.00,0.0,WeatherDisplay:10.37,2013-06-16 13:23:00,
2013-06-16 09:28:00,79.5,66.7,30.17,SW,227,7.6,11.5,65,0.00,OVC,,0.00,0.0,WeatherDisplay:10.37,2013-06-16 13:28:00,
2013-06-16 09:33:00,79.3,67.0,30.17,South,177,5.6,11.5,66,0.00,OVC,,0.00,0.0,WeatherDisplay:10.37,2013-06-16 13:33:00,
2013-06-16 09:38:00,79.4,67.5,30.17,SSW,194,3.8,6.0,67,0.00,OVC,,0.00,0.0,WeatherDisplay:10.37,2013-06-16 13:38:00,
2013-06-16 09:43:00,79.6,67.2,30.17,SW,235,5.9,12.7,66,0.00,OVC,,0.00,0.0,WeatherDisplay:10.37,2013-06-16 13:43:00,
2013-06-16 09:48:00,80.1,66.8,30.17,WSW,249,6.2,8.1,64,0.00,OVC,,0.00,0.0,WeatherDisplay:10.37,2013-06-16 13:48:00,
2013-06-16 09:53:00,80.3,67.0,30.17,West,281,4.9,8.1,64,0.00,OVC,,0.00,0.0,WeatherDisplay:10.37,2013-06-16 13:53:00,
2013-06-16 09:58:00,80.7,67.4,30.17,South,175,4.8,11.5,64,0.00,OVC,,0.00,0.0,WeatherDisplay:10.37,2013-06-16 13:58:00,
2013-06-16 10:03:00,80.7,67.4,30.16,SW,226,6.4,11.0,64,0.00,OVC,,0.00,0.0,WeatherDisplay:10.37,2013-06-16 14:03:00,
2013-06-16 10:08:00,80.7,67.4,30.16,SW,221,7.5,12.7,64,0.00,OVC,,0.00,0.0,WeatherDisplay:10.37,2013-06-16 14:08:00,
2013-06-16 10:13:00,80.9,67.1,30.16,SW,219,2.5,4.6,63,0.00,OVC,,0.00,0.0,WeatherDisplay:10.37,2013-06-16 14:13:00,
2013-06-16 10:18:00,81.2,67.9,30.16,WSW,251,1.6,4.6,64,0.00,OVC,,0.00,0.0,WeatherDisplay:10.37,2013-06-16 14:18:00,
2013-06-16 10:23:00,81.4,66.7,30.16,WSW,248,4.9,8.1,61,0.00,OVC,,0.00,0.0,WeatherDisplay:10.37,2013-06-16 14:23:00,
2013-06-16 10:28:00,81.6,66.8,30.16,SW,236,3.9,6.9,61,0.00,OVC,,0.00,0.0,WeatherDisplay:10.37,2013-06-16 14:28:00,
2013-06-16 10:33:00,81.9,66.6,30.15,SW,215,1.1,3.5,60,0.00,OVC,,0.00,0.0,WeatherDisplay:10.37,2013-06-16 14:33:00,
2013-06-16 10:38:00,82.3,67.0,30.16,SW,226,7.3,10.4,60,0.00,OVC,,0.00,0.0,WeatherDisplay:10.37,2013-06-16 14:38:00,
2013-06-16 10:43:00,82.3,67.5,30.16,SW,227,2.8,8.1,61,0.00,OVC,,0.00,0.0,WeatherDisplay:10.37,2013-06-16 14:43:00,
2013-06-16 10:48:00,82.6,66.3,30.16,South,173,4.5,9.2,58,0.00,OVC,,0.00,0.0,WeatherDisplay:10.37,2013-06-16 14:48:00,
2013-06-16 10:53:00,82.6,65.3,30.16,South,169,5.5,6.9,56,0.00,OVC,,0.00,0.0,WeatherDisplay:10.37,2013-06-16 14:53:00,
2013-06-16 10:58:00,82.5,64.7,30.15,SW,225,3.8,11.5,55,0.00,OVC,,0.00,0.0,WeatherDisplay:10.37,2013-06-16 14:58:00,
2013-06-16 11:03:00,82.7,64.9,30.15,WSW,238,7.0,12.0,55,0.00,OVC,,0.00,0.0,WeatherDisplay:10.37,2013-06-16 15:03:00,
2013-06-16 11:08:00,82.8,65.0,30.15,WSW,241,4.3,10.4,55,0.00,OVC,,0.00,0.0,WeatherDisplay:10.37,2013-06-16 15:08:00,
2013-06-16 11:13:00,83.2,64.8,30.15,SW,234,5.0,10.0,54,0.00,OVC,,0.00,0.0,WeatherDisplay:10.37,2013-06-16 15:13:00,
2013-06-16 11:18:00,82.9,63.5,30.15,SW,226,4.4,11.5,52,0.00,OVC,,0.00,0.0,WeatherDisplay:10.37,2013-06-16 15:18:00,
2013-06-16 11:23:00,83.0,65.2,30.14,SSW,205,4.6,5.8,55,0.00,OVC,,0.00,0.0,WeatherDisplay:10.37,2013-06-16 15:23:00,
2013-06-16 11:28:00,83.4,63.4,30.14,SSW,192,5.3,9.2,51,0.00,OVC,,0.00,0.0,WeatherDisplay:10.37,2013-06-16 15:28:00,
2013-06-16 11:33:00,83.6,64.1,30.14,South,186,5.1,9.2,52,0.00,OVC,,0.00,0.0,WeatherDisplay:10.37,2013-06-16 15:33:00,
2013-06-16 11:38:00,83.8,64.8,30.14,SW,220,2.4,4.6,53,0.00,OVC,,0.00,0.0,WeatherDisplay:10.37,2013-06-16 15:38:00,
2013-06-16 11:43:00,84.1,65.1,30.14,SW,214,3.9,6.9,53,0.00,OVC,,0.00,0.0,WeatherDisplay:10.37,2013-06-16 15:43:00,
2013-06-16 11:48:00,84.1,65.1,30.14,WSW,241,4.1,11.5,53,0.00,OVC,,0.00,0.0,WeatherDisplay:10.37,2013-06-16 15:48:00,
2013-06-16 11:53:00,83.8,64.3,30.14,South,189,4.7,6.0,52,0.00,OVC,,0.00,0.0,WeatherDisplay:10.37,2013-06-16 15:53:00,
2013-06-16 11:58:00,83.8,64.8,30.13,ESE,110,4.7,8.1,53,0.00,OVC,,0.00,0.0,WeatherDisplay:10.37,2013-06-16 15:58:00,
2013-06-16 12:03:00,83.8,64.3,30.14,SW,221,5.7,10.4,52,0.00,OVC,,0.00,0.0,WeatherDisplay:10.37,2013-06-16 16:03:00,
2013-06-16 12:08:00,83.8,64.3,30.14,WSW,242,3.1,6.9,52,0.00,OVC,,0.00,0.0,WeatherDisplay:10.37,2013-06-16 16:08:00,
2013-06-16 12:13:00,84.0,62.8,30.13,SW,234,3.7,4.6,49,0.00,OVC,,0.00,0.0,WeatherDisplay:10.37,2013-06-16 16:13:00,
2013-06-16 12:18:00,84.3,64.8,30.13,WSW,238,2.9,7.0,52,0.00,OVC,,0.00,0.0,WeatherDisplay:10.37,2013-06-16 16:18:00,
2013-06-16 12:23:00,84.9,64.8,30.13,WSW,243,3.1,6.9,51,0.00,OVC,,0.00,0.0,WeatherDisplay:10.37,2013-06-16 16:23:00,
2013-06-16 12:28:00,84.3,63.6,30.13,SSE,164,5.8,9.2,50,0.00,OVC,,0.00,0.0,WeatherDisplay:10.37,2013-06-16 16:28:00,
2013-06-16 12:33:00,84.1,64.6,30.13,SSW,194,5.0,8.1,52,0.00,OVC,,0.00,0.0,WeatherDisplay:10.37,2013-06-16 16:33:00,
2013-06-16 12:38:00,84.4,64.3,30.13,WNW,288,3.5,10.4,51,0.00,OVC,,0.00,0.0,WeatherDisplay:10.37,2013-06-16 16:38:00,
2013-06-16 12:43:00,84.8,64.1,30.12,SW,217,4.2,8.1,50,0.00,OVC,,0.00,0.0,WeatherDisplay:10.37,2013-06-16 16:43:00,
2013-06-16 12:48:00,84.7,64.0,30.12,SSW,207,1.7,8.0,50,0.00,OVC,,0.00,0.0,WeatherDisplay:10.37,2013-06-16 16:48:00,
2013-06-16 12:53:00,84.8,62.9,30.12,South,178,5.4,8.1,48,0.00,OVC,,0.00,0.0,WeatherDisplay:10.37,2013-06-16 16:53:00,
2013-06-16 12:58:00,85.1,64.4,30.11,North,9,2.4,6.9,50,0.00,OVC,,0.00,0.0,WeatherDisplay:10.37,2013-06-16 16:58:00,
2013-06-16 13:03:00,85.3,63.4,30.11,SW,216,4.4,6.9,48,0.00,OVC,,0.00,0.0,WeatherDisplay:10.37,2013-06-16 17:03:00,
2013-06-16 13:08:00,85.3,63.4,30.11,SW,235,5.1,8.1,48,0.00,OVC,,0.00,0.0,WeatherDisplay:10.37,2013-06-16 17:08:00,
2013-06-16 13:13:00,85.1,62.6,30.11,SSW,202,5.9,9.2,47,0.00,OVC,,0.00,0.0,WeatherDisplay:10.37,2013-06-16 17:13:00,
2013-06-16 13:18:00,85.0,63.7,30.11,SSW,198,3.0,4.6,49,0.00,OVC,,0.00,0.0,WeatherDisplay:10.37,2013-06-16 17:18:00,
2013-06-16 13:23:00,84.7,63.4,30.11,West,267,3.8,5.8,49,0.00,OVC,,0.00,0.0,WeatherDisplay:10.37,2013-06-16 17:23:00,
2013-06-16 13:28:00,84.5,63.8,30.11,West,262,5.8,8.1,50,0.00,OVC,,0.00,0.0,WeatherDisplay:10.37,2013-06-16 17:28:00,
2013-06-16 13:33:00,84.2,64.1,30.11,South,189,4.5,9.2,51,0.00,OVC,,0.00,0.0,WeatherDisplay:10.37,2013-06-16 17:33:00,
2013-06-16 13:38:00,84.3,64.8,30.10,South,179,1.8,10.4,52,0.00,OVC,,0.00,0.0,WeatherDisplay:10.37,2013-06-16 17:38:00,
2013-06-16 13:43:00,84.7,63.4,30.11,South,170,5.9,9.2,49,0.00,OVC,,0.00,0.0,WeatherDisplay:10.37,2013-06-16 17:43:00,
2013-06-16 13:48:00,84.8,63.5,30.10,SW,215,7.2,11.5,49,0.00,OVC,,0.00,0.0,WeatherDisplay:10.37,2013-06-16 17:48:00,
2013-06-16 13:53:00,84.6,63.9,30.10,SSW,198,4.7,10.4,50,0.00,OVC,,0.00,0.0,WeatherDisplay:10.37,2013-06-16 17:53:00,
2013-06-16 13:58:00,84.8,64.1,30.09,South,188,3.3,8.0,50,0.00,OVC,,0.00,0.0,WeatherDisplay:10.37,2013-06-16 17:58:00,
2013-06-16 14:03:00,84.9,63.6,30.10,South,186,6.9,10.4,49,0.00,OVC,,0.00,0.0,WeatherDisplay:10.37,2013-06-16 18:03:00,
2013-06-16 14:08:00,85.0,64.3,30.09,ESE,120,7.2,11.5,50,0.00,OVC,,0.00,0.0,WeatherDisplay:10.37,2013-06-16 18:08:00,
2013-06-16 14:13:00,85.4,63.5,30.09,SW,229,6.5,8.1,48,0.00,OVC,,0.00,0.0,WeatherDisplay:10.37,2013-06-16 18:13:00,
2013-06-16 14:18:00,85.5,63.6,30.09,South,171,5.5,8.0,48,0.00,OVC,,0.00,0.0,WeatherDisplay:10.37,2013-06-16 18:18:00,
2013-06-16 14:23:00,85.5,64.2,30.09,SSW,194,5.7,10.4,49,0.00,OVC,,0.00,0.0,WeatherDisplay:10.37,2013-06-16 18:23:00,
2013-06-16 14:29:00,85.5,63.6,30.09,SW,234,5.4,9.2,48,0.00,OVC,,0.00,0.0,WeatherDisplay:10.37,2013-06-16 18:29:00,
2013-06-16 14:34:00,85.5,64.2,30.09,SSW,205,4.4,7.0,49,0.00,OVC,,0.00,0.0,WeatherDisplay:10.37,2013-06-16 18:34:00,
2013-06-16 14:39:00,85.4,64.6,30.09,SW,224,4.9,8.1,50,0.00,OVC,,0.00,0.0,WeatherDisplay:10.37,2013-06-16 18:39:00,
2013-06-16 14:44:00,86.0,65.8,30.09,WSW,243,5.7,8.1,51,0.00,OVC,,0.00,0.0,WeatherDisplay:10.37,2013-06-16 18:44:00,
2013-06-16 14:49:00,86.1,64.7,30.09,South,188,6.8,11.5,49,0.00,OVC,,0.00,0.0,WeatherDisplay:10.37,2013-06-16 18:49:00,
2013-06-16 14:54:00,85.5,64.2,30.09,SSW,211,5.6,11.5,49,0.00,OVC,,0.00,0.0,WeatherDisplay:10.37,2013-06-16 18:54:00,
2013-06-16 14:59:00,84.9,63.6,30.09,South,180,7.0,11.5,49,0.00,OVC,,0.00,0.0,WeatherDisplay:10.37,2013-06-16 18:59:00,
2013-06-16 15:04:00,84.9,64.2,30.09,ESE,111,3.6,6.9,50,0.00,OVC,,0.00,0.0,WeatherDisplay:10.37,2013-06-16 19:04:00,
2013-06-16 15:09:00,85.2,64.5,30.09,SSW,196,5.3,9.2,50,0.00,OVC,,0.00,0.0,WeatherDisplay:10.37,2013-06-16 19:09:00,
2013-06-16 15:14:00,85.2,63.9,30.08,WSW,241,6.0,9.2,49,0.00,OVC,,0.00,0.0,WeatherDisplay:10.37,2013-06-16 19:14:00,
2013-06-16 15:19:00,85.2,65.0,30.08,SW,224,4.9,6.9,51,0.00,OVC,,0.00,0.0,WeatherDisplay:10.37,2013-06-16 19:19:00,
2013-06-16 15:24:00,85.0,64.3,30.08,SW,236,4.6,11.5,50,0.00,OVC,,0.00,0.0,WeatherDisplay:10.37,2013-06-16 19:24:00,
2013-06-16 15:29:00,84.5,64.4,30.08,SW,223,5.5,10.4,51,0.00,OVC,,0.00,0.0,WeatherDisplay:10.37,2013-06-16 19:29:00,
2013-06-16 15:34:00,84.7,65.1,30.08,SSW,193,5.5,8.1,52,0.00,OVC,,0.00,0.0,WeatherDisplay:10.37,2013-06-16 19:34:00,
2013-06-16 15:39:00,85.0,65.4,30.08,SW,221,5.5,11.5,52,0.00,OVC,,0.00,0.0,WeatherDisplay:10.37,2013-06-16 19:39:00,
2013-06-16 15:44:00,85.1,64.4,30.08,South,181,4.9,15.0,50,0.00,OVC,,0.00,0.0,WeatherDisplay:10.37,2013-06-16 19:44:00,
2013-06-16 15:49:00,85.0,64.8,30.08,SW,229,5.2,11.5,51,0.00,OVC,,0.00,0.0,WeatherDisplay:10.37,2013-06-16 19:49:00,
2013-06-16 15:54:00,85.2,65.0,30.08,SSW,198,8.0,11.5,51,0.00,OVC,,0.00,0.0,WeatherDisplay:10.37,2013-06-16 19:54:00,
2013-06-16 15:59:00,85.2,64.5,30.08,SSW,195,4.6,8.1,50,0.00,OVC,,0.00,0.0,WeatherDisplay:10.37,2013-06-16 19:59:00,
2013-06-16 16:04:00,85.4,65.2,30.08,SW,227,6.8,11.5,51,0.00,OVC,,0.00,0.0,WeatherDisplay:10.37,2013-06-16 20:04:00,
2013-06-16 16:09:00,85.1,64.9,30.08,WSW,237,6.7,10.4,51,0.00,OVC,,0.00,0.0,WeatherDisplay:10.37,2013-06-16 20:09:00,
2013-06-16 16:14:00,85.0,64.8,30.07,ESE,110,3.1,11.5,51,0.00,OVC,,0.00,0.0,WeatherDisplay:10.37,2013-06-16 20:14:00,
2013-06-16 16:19:00,85.2,64.5,30.07,SW,216,3.8,6.9,50,0.00,OVC,,0.00,0.0,WeatherDisplay:10.37,2013-06-16 20:19:00,
2013-06-16 16:24:00,85.4,64.1,30.07,SW,221,6.3,9.2,49,0.00,OVC,,0.00,0.0,WeatherDisplay:10.37,2013-06-16 20:24:00,
2013-06-16 16:29:00,85.2,65.0,30.07,SSW,209,4.7,6.9,51,0.00,OVC,,0.00,0.0,WeatherDisplay:10.37,2013-06-16 20:29:00,
2013-06-16 16:34:00,84.8,64.1,30.07,SE,127,5.9,9.2,50,0.00,OVC,,0.00,0.0,WeatherDisplay:10.37,2013-06-16 20:34:00,
2013-06-16 16:39:00,84.7,64.0,30.07,South,188,4.6,10.4,50,0.00,OVC,,0.00,0.0,WeatherDisplay:10.37,2013-06-16 20:39:00,
2013-06-16 16:44:00,84.8,64.7,30.07,West,260,4.4,11.5,51,0.00,OVC,,0.00,0.0,WeatherDisplay:10.37,2013-06-16 20:44:00,
2013-06-16 16:49:00,84.6,63.9,30.07,SW,224,6.1,12.7,50,0.00,OVC,,0.00,0.0,WeatherDisplay:10.37,2013-06-16 20:49:00,
2013-06-16 16:54:00,84.6,64.5,30.07,SW,233,5.0,8.1,51,0.00,OVC,,0.00,0.0,WeatherDisplay:10.37,2013-06-16 20:54:00,
2013-06-16 16:59:00,84.6,63.9,30.07,SSW,194,5.1,10.4,50,0.00,OVC,,0.00,0.0,WeatherDisplay:10.37,2013-06-16 20:59:00,
2013-06-16 17:04:00,84.7,64.0,30.06,South,180,6.8,11.5,50,0.00,OVC,,0.00,0.0,WeatherDisplay:10.37,2013-06-16 21:04:00,
2013-06-16 17:09:00,84.5,63.8,30.06,SW,234,5.5,7.0,50,0.00,OVC,,0.00,0.0,WeatherDisplay:10.37,2013-06-16 21:09:00,
2013-06-16 17:14:00,84.5,63.8,30.07,South,171,6.0,10.4,50,0.00,OVC,,0.00,0.0,WeatherDisplay:10.37,2013-06-16 21:14:00,
2013-06-16 17:19:00,84.3,63.6,30.07,SW,219,5.5,13.8,50,0.00,OVC,,0.00,0.0,WeatherDisplay:10.37,2013-06-16 21:19:00,
2013-06-16 17:24:00,84.0,63.4,30.07,SSW,196,6.1,9.2,50,0.00,OVC,,0.00,0.0,WeatherDisplay:10.37,2013-06-16 21:24:00,
2013-06-16 17:29:00,84.1,63.5,30.07,SW,226,6.6,9.2,50,0.00,OVC,,0.00,0.0,WeatherDisplay:10.37,2013-06-16 21:29:00,
2013-06-16 17:34:00,84.1,63.5,30.07,SE,143,5.0,9.2,50,0.00,OVC,,0.00,0.0,WeatherDisplay:10.37,2013-06-16 21:34:00,
2013-06-16 17:39:00,84.1,63.5,30.07,South,178,4.3,9.2,50,0.00,OVC,,0.00,0.0,WeatherDisplay:10.37,2013-06-16 21:39:00,
2013-06-16 17:44:00,84.0,63.9,30.06,SSW,197,3.6,8.1,51,0.00,OVC,,0.00,0.0,WeatherDisplay:10.37,2013-06-16 21:44:00,
2013-06-16 17:49:00,84.1,63.5,30.06,SW,229,4.9,10.4,50,0.00,OVC,,0.00,0.0,WeatherDisplay:10.37,2013-06-16 21:49:00,
2013-06-16 17:54:00,83.9,63.3,30.06,SW,226,6.7,12.7,50,0.00,OVC,,0.00,0.0,WeatherDisplay:10.37,2013-06-16 21:54:00,
2013-06-16 17:59:00,83.6,63.0,30.06,SW,219,6.1,6.1,50,0.00,OVC,,0.00,0.0,WeatherDisplay:10.37,2013-06-16 21:59:00,
2013-06-16 18:04:00,83.3,63.3,30.06,South,171,4.6,10.4,51,0.00,OVC,,0.00,0.0,WeatherDisplay:10.37,2013-06-16 22:04:00,
2013-06-16 18:09:00,83.2,63.2,30.06,SE,142,8.1,12.7,51,0.00,OVC,,0.00,0.0,WeatherDisplay:10.37,2013-06-16 22:09:00,
2013-06-16 18:14:00,82.9,63.5,30.06,South,174,5.8,10.4,52,0.00,OVC,,0.00,0.0,WeatherDisplay:10.37,2013-06-16 22:14:00,
2013-06-16 18:19:00,82.9,63.5,30.06,SW,216,6.3,11.5,52,0.00,OVC,,0.00,0.0,WeatherDisplay:10.37,2013-06-16 22:19:00,
2013-06-16 18:24:00,82.8,62.8,30.06,South,178,7.2,10.4,51,0.00,OVC,,0.00,0.0,WeatherDisplay:10.37,2013-06-16 22:24:00,
2013-06-16 18:29:00,82.8,63.4,30.06,SSW,194,3.4,6.9,52,0.00,OVC,,0.00,0.0,WeatherDisplay:10.37,2013-06-16 22:29:00,
2013-06-16 18:34:00,82.6,63.7,30.06,SSE,157,4.6,6.9,53,0.00,OVC,,0.00,0.0,WeatherDisplay:10.37,2013-06-16 22:34:00,
2013-06-16 18:39:00,82.5,63.6,30.06,South,180,5.9,9.2,53,0.00,OVC,,0.00,0.0,WeatherDisplay:10.37,2013-06-16 22:39:00,
2013-06-16 18:44:00,81.9,64.1,30.06,SSW,211,3.6,8.1,55,0.00,OVC,,0.00,0.0,WeatherDisplay:10.37,2013-06-16 22:44:00,
2013-06-16 18:49:00,81.4,64.7,30.07,SE,136,5.8,9.2,57,0.00,OVC,,0.00,0.0,WeatherDisplay:10.37,2013-06-16 22:49:00,
2013-06-16 18:54:00,81.0,64.8,30.06,SW,236,5.9,11.0,58,0.00,OVC,,0.00,0.0,WeatherDisplay:10.37,2013-06-16 22:54:00,
2013-06-16 18:59:00,80.6,64.5,30.07,South,174,4.5,9.2,58,0.00,OVC,,0.00,0.0,WeatherDisplay:10.37,2013-06-16 22:59:00,
2013-06-16 19:04:00,80.3,64.7,30.07,SW,236,5.8,9.2,59,0.00,OVC,,0.00,0.0,WeatherDisplay:10.37,2013-06-16 23:04:00,
2013-06-16 19:09:00,80.0,64.9,30.07,SW,227,6.2,10.4,60,0.00,OVC,,0.00,0.0,WeatherDisplay:10.37,2013-06-16 23:09:00,
2013-06-16 19:14:00,79.9,64.8,30.07,SW,232,4.0,6.9,60,0.00,OVC,,0.00,0.0,WeatherDisplay:10.37,2013-06-16 23:14:00,
2013-06-16 19:19:00,79.8,65.2,30.08,SW,223,3.0,6.0,61,0.00,OVC,,0.00,0.0,WeatherDisplay:10.37,2013-06-16 23:19:00,
2013-06-16 19:24:00,79.6,65.0,30.08,SSW,194,2.3,4.0,61,0.00,OVC,,0.00,0.0,WeatherDisplay:10.37,2013-06-16 23:24:00,
2013-06-16 19:29:00,79.4,64.8,30.08,South,190,3.4,5.8,61,0.00,OVC,,0.00,0.0,WeatherDisplay:10.37,2013-06-16 23:29:00,
2013-06-16 19:34:00,79.2,64.6,30.08,SSW,194,4.8,8.1,61,0.00,OVC,,0.00,0.0,WeatherDisplay:10.37,2013-06-16 23:34:00,
2013-06-16 19:39:00,78.8,64.7,30.08,SSE,164,3.5,5.8,62,0.00,OVC,,0.00,0.0,WeatherDisplay:10.37,2013-06-16 23:39:00,
2013-06-16 19:45:00,78.6,64.5,30.08,SSW,195,2.2,3.5,62,0.00,OVC,,0.00,0.0,WeatherDisplay:10.37,2013-06-16 23:45:00,
2013-06-16 19:50:00,78.4,64.8,30.08,SW,236,3.3,6.0,63,0.00,OVC,,0.00,0.0,WeatherDisplay:10.37,2013-06-16 23:50:00,
2013-06-16 19:55:00,78.1,64.9,30.08,SSE,159,3.8,5.8,64,0.00,OVC,,0.00,0.0,WeatherDisplay:10.37,2013-06-16 23:55:00,
2013-06-16 20:00:00,77.9,64.7,30.08,South,189,5.5,8.1,64,0.00,OVC,,0.00,0.0,WeatherDisplay:10.37,2013-06-17 00:00:00,
2013-06-16 20:05:00,77.8,64.6,30.08,SSW,207,6.3,11.5,64,0.00,OVC,,0.00,0.0,WeatherDisplay:10.37,2013-06-17 00:05:00,
2013-06-16 20:10:00,77.7,65.0,30.08,South,187,5.1,9.2,65,0.00,OVC,,0.00,0.0,WeatherDisplay:10.37,2013-06-17 00:10:00,
2013-06-16 20:15:00,77.5,65.2,30.08,SSW,198,4.4,5.8,66,0.00,OVC,,0.00,0.0,WeatherDisplay:10.37,2013-06-17 00:15:00,
2013-06-16 20:20:00,77.4,65.1,30.08,SSW,201,2.9,5.8,66,0.00,OVC,,0.00,0.0,WeatherDisplay:10.37,2013-06-17 00:20:00,
2013-06-16 20:25:00,77.2,65.4,30.08,South,186,6.0,6.9,67,0.00,OVC,,0.00,0.0,WeatherDisplay:10.37,2013-06-17 00:25:00,
2013-06-16 20:30:00,77.1,65.3,30.08,SSW,200,3.5,5.8,67,0.00,OVC,,0.00,0.0,WeatherDisplay:10.37,2013-06-17 00:30:00,
2013-06-16 20:35:00,76.9,65.5,30.08,SW,218,1.4,3.5,68,0.00,OVC,,0.00,0.0,WeatherDisplay:10.37,2013-06-17 00:35:00,
2013-06-16 20:40:00,76.6,65.2,30.08,South,188,0.4,2.0,68,0.00,OVC,,0.00,0.0,WeatherDisplay:10.37,2013-06-17 00:40:00,
2013-06-16 20:45:00,76.4,65.5,30.08,SSW,200,3.0,4.6,69,0.00,OVC,,0.00,0.0,WeatherDisplay:10.37,2013-06-17 00:45:00,
2013-06-16 20:50:00,76.2,65.3,30.08,South,173,2.2,3.5,69,0.00,OVC,,0.00,0.0,WeatherDisplay:10.37,2013-06-17 00:50:00,
2013-06-16 20:55:00,76.1,65.6,30.08,SSW,202,2.3,3.5,70,0.00,OVC,,0.00,0.0,WeatherDisplay:10.37,2013-06-17 00:55:00,
2013-06-16 21:00:00,75.9,65.4,30.08,SW,215,1.1,4.0,70,0.00,CLR,OVC,0.00,0.0,WeatherDisplay:10.37,2013-06-17 01:00:00,
2013-06-16 21:05:00,75.7,65.2,30.08,SSE,155,2.3,4.6,70,0.00,CLR,OVC,0.00,0.0,WeatherDisplay:10.37,2013-06-17 01:05:00,
2013-06-16 21:10:00,75.6,65.5,30.08,South,185,2.9,3.5,71,0.00,CLR,OVC,0.00,0.0,WeatherDisplay:10.37,2013-06-17 01:10:00,
2013-06-16 21:15:00,75.5,65.4,30.08,SSE,167,0.2,3.5,71,0.00,CLR,OVC,0.00,0.0,WeatherDisplay:10.37,2013-06-17 01:15:00,
2013-06-16 21:20:00,75.4,65.7,30.08,SSE,153,1.1,3.5,72,0.00,CLR,OVC,0.00,0.0,WeatherDisplay:10.37,2013-06-17 01:20:00,
2013-06-16 21:25:00,75.2,65.6,30.08,South,178,2.4,6.9,72,0.00,CLR,OVC,0.00,0.0,WeatherDisplay:10.37,2013-06-17 01:25:00,
2013-06-16 21:30:00,75.1,65.5,30.08,SSW,202,0.4,5.8,72,0.00,CLR,OVC,0.00,0.0,WeatherDisplay:10.37,2013-06-17 01:30:00,
2013-06-16 21:35:00,75.0,65.4,30.08,SSW,205,0.0,2.0,72,0.00,CLR,OVC,0.00,0.0,WeatherDisplay:10.37,2013-06-17 01:35:00,
2013-06-16 21:40:00,74.9,65.3,30.08,South,177,1.0,6.0,72,0.00,CLR,OVC,0.00,0.0,WeatherDisplay:10.37,2013-06-17 01:40:00,
2013-06-16 21:45:00,74.9,65.7,30.08,SSW,198,0.2,4.6,73,0.00,CLR,OVC,0.00,0.0,WeatherDisplay:10.37,2013-06-17 01:45:00,
2013-06-16 21:50:00,74.9,65.7,30.08,South,183,1.9,3.5,73,0.00,CLR,OVC,0.00,0.0,WeatherDisplay:10.37,2013-06-17 01:50:00,
2013-06-16 21:55:00,74.8,65.6,30.08,SSE,158,0.0,3.5,73,0.00,CLR,OVC,0.00,0.0,WeatherDisplay:10.37,2013-06-17 01:55:00,
2013-06-16 22:00:00,74.6,65.4,30.08,SSW,200,0.3,3.0,73,0.00,CLR,OVC,0.00,0.0,WeatherDisplay:10.37,2013-06-17 02:00:00,
2013-06-16 22:05:00,74.5,65.7,30.08,SSW,205,0.4,3.5,74,0.00,CLR,OVC,0.00,0.0,WeatherDisplay:10.37,2013-06-17 02:05:00,
2013-06-16 22:10:00,74.4,65.6,30.08,SSW,194,0.3,4.6,74,0.00,CLR,OVC,0.00,0.0,WeatherDisplay:10.37,2013-06-17 02:10:00,
2013-06-16 22:15:00,74.4,65.6,30.08,SE,145,0.3,4.6,74,0.00,CLR,OVC,0.00,0.0,WeatherDisplay:10.37,2013-06-17 02:15:00,
2013-06-16 22:20:00,74.3,65.5,30.08,SSE,164,0.6,4.0,74,0.00,CLR,OVC,0.00,0.0,WeatherDisplay:10.37,2013-06-17 02:20:00,
2013-06-16 22:25:00,74.2,65.4,30.09,SSE,156,1.3,5.0,74,0.00,CLR,OVC,0.00,0.0,WeatherDisplay:10.37,2013-06-17 02:25:00,
2013-06-16 22:30:00,74.1,65.3,30.09,SSW,192,0.1,1.1,74,0.00,CLR,OVC,0.00,0.0,WeatherDisplay:10.37,2013-06-17 02:30:00,
2013-06-16 22:35:00,74.1,65.3,30.09,South,173,0.0,3.5,74,0.00,CLR,OVC,0.00,0.0,WeatherDisplay:10.37,2013-06-17 02:35:00,
2013-06-16 22:40:00,74.0,65.2,30.09,SE,136,0.1,3.5,74,0.00,CLR,OVC,0.00,0.0,WeatherDisplay:10.37,2013-06-17 02:40:00,
2013-06-16 22:45:00,74.0,65.2,30.09,SSE,166,0.0,2.3,74,0.00,CLR,OVC,0.00,0.0,WeatherDisplay:10.37,2013-06-17 02:45:00,
2013-06-16 22:50:00,73.9,65.1,30.09,SSW,198,0.0,1.1,74,0.00,CLR,OVC,0.00,0.0,WeatherDisplay:10.37,2013-06-17 02:50:00,
2013-06-16 22:55:00,73.9,65.1,30.09,South,180,1.3,6.9,74,0.00,CLR,OVC,0.00,0.0,WeatherDisplay:10.37,2013-06-17 02:55:00,
2013-06-16 23:00:00,73.9,65.1,30.09,SSW,192,0.1,1.1,74,0.00,CLR,OVC,0.00,0.0,WeatherDisplay:10.37,2013-06-17 03:00:00,
2013-06-16 23:05:00,73.8,65.4,30.09,SSW,213,0.3,3.5,75,0.00,CLR,OVC,0.00,0.0,WeatherDisplay:10.37,2013-06-17 03:05:00,
2013-06-16 23:10:00,73.8,65.4,30.09,South,186,0.2,2.3,75,0.00,CLR,OVC,0.00,0.0,WeatherDisplay:10.37,2013-06-17 03:10:00,
2013-06-16 23:15:00,73.7,65.3,30.09,SSW,201,0.0,1.1,75,0.00,CLR,OVC,0.00,0.0,WeatherDisplay:10.37,2013-06-17 03:15:00,
2013-06-16 23:20:00,73.7,65.3,30.09,SSE,159,0.5,1.1,75,0.00,CLR,OVC,0.00,0.0,WeatherDisplay:10.37,2013-06-17 03:20:00,
2013-06-16 23:25:00,73.6,65.2,30.09,SSW,203,0.1,1.1,75,0.00,CLR,OVC,0.00,0.0,WeatherDisplay:10.37,2013-06-17 03:25:00,
2013-06-16 23:30:00,73.6,65.2,30.09,South,186,0.1,3.5,75,0.00,CLR,OVC,0.00,0.0,WeatherDisplay:10.37,2013-06-17 03:30:00,
2013-06-16 23:35:00,73.5,65.1,30.09,SSE,165,0.8,5.8,75,0.00,CLR,OVC,0.00,0.0,WeatherDisplay:10.37,2013-06-17 03:35:00,
2013-06-16 23:40:00,73.5,65.1,30.09,South,174,0.4,2.3,75,0.00,CLR,OVC,0.00,0.0,WeatherDisplay:10.37,2013-06-17 03:40:00,
2013-06-16 23:45:00,73.6,65.2,30.09,South,188,0.1,1.1,75,0.00,CLR,OVC,0.00,0.0,WeatherDisplay:10.37,2013-06-17 03:45:00,
2013-06-16 23:50:00,73.7,65.3,30.09,SW,217,0.6,2.3,75,0.00,CLR,OVC,0.00,0.0,WeatherDisplay:10.37,2013-06-17 03:50:00,
2013-06-16 23:55:00,73.7,65.3,30.09,South,184,0.2,1.1,75,0.00,CLR,OVC,0.00,0.0,WeatherDisplay:10.37,2013-06-17 03:55:00,